createdAt,value
2023-01-25T00:01:53.030Z,14.20
2023-01-25T00:04:20.415Z,15.07
2023-01-25T00:06:47.312Z,13.27
2023-01-25T00:09:14.472Z,14.27
2023-01-25T00:11:41.357Z,13.23
2023-01-25T00:14:07.952Z,14.45
2023-01-25T00:16:34.328Z,15.57
2023-01-25T00:19:00.784Z,12.88
2023-01-25T00:21:27.489Z,13.77
2023-01-25T00:23:54.159Z,13.75
2023-01-25T00:26:20.688Z,13.55
2023-01-25T00:28:54.211Z,14.57
2023-01-25T00:31:27.179Z,14.43
2023-01-25T00:34:02.048Z,14.75
2023-01-25T00:36:38.327Z,14.38
2023-01-25T00:39:06.727Z,15.80
2023-01-25T00:41:33.063Z,14.18
2023-01-25T00:44:00.292Z,15.55
2023-01-25T00:46:27.694Z,15.20
2023-01-25T00:48:54.921Z,16.10
2023-01-25T00:51:22.082Z,15.35
2023-01-25T00:53:48.508Z,14.65
2023-01-25T00:56:15.044Z,15.60
2023-01-25T00:58:42.067Z,14.25
2023-01-25T01:01:08.813Z,14.57
2023-01-25T01:03:35.292Z,14.88
2023-01-25T01:06:04.767Z,15.45
2023-01-25T01:08:33.724Z,14.93
2023-01-25T01:11:05.358Z,14.85
2023-01-25T01:13:32.359Z,14.93
2023-01-25T01:16:02.681Z,14.77
2023-01-25T01:18:33.589Z,15.75
2023-01-25T01:20:59.961Z,14.75
2023-01-25T01:23:28.653Z,16.30
2023-01-25T01:25:55.015Z,15.85
2023-01-25T01:28:21.436Z,16.45
2023-01-25T01:30:47.794Z,16.02
2023-01-25T01:33:14.166Z,17.40
2023-01-25T01:35:40.562Z,16.67
2023-01-25T01:38:07.170Z,16.08
2023-01-25T01:40:33.600Z,15.70
2023-01-25T01:43:01.644Z,15.13
2023-01-25T01:45:43.603Z,15.98
2023-01-25T01:48:31.625Z,16.05
2023-01-25T01:51:02.892Z,15.15
2023-01-25T01:53:31.482Z,15.45
2023-01-25T01:56:04.573Z,15.70
2023-01-25T01:58:32.401Z,15.77
2023-01-25T02:00:58.844Z,15.52
2023-01-25T02:03:26.566Z,16.65
2023-01-25T02:06:04.744Z,16.80
2023-01-25T02:08:34.524Z,17.50
2023-01-25T02:11:01.685Z,16.95
2023-01-25T02:13:28.420Z,17.00
2023-01-25T02:15:56.526Z,17.13
2023-01-25T02:18:24.594Z,16.60
2023-01-25T02:20:53.385Z,17.38
2023-01-25T02:23:50.795Z,17.30
2023-01-25T02:26:19.465Z,16.85
2023-01-25T02:28:52.095Z,17.00
2023-01-25T02:31:18.579Z,15.57
2023-01-25T02:33:45.001Z,15.55
2023-01-25T02:36:11.326Z,15.50
2023-01-25T02:38:43.020Z,16.60
2023-01-25T02:41:18.071Z,15.90
2023-01-25T02:43:44.434Z,15.75
2023-01-25T02:46:17.804Z,16.10
2023-01-25T02:48:44.404Z,16.75
2023-01-25T02:51:10.762Z,17.42
2023-01-25T02:53:37.152Z,16.30
2023-01-25T02:56:04.155Z,17.15
2023-01-25T02:58:30.550Z,16.20
2023-01-25T03:00:57.954Z,16.08
2023-01-25T03:03:24.465Z,17.42
2023-01-25T03:05:50.800Z,15.60
2023-01-25T03:08:17.352Z,16.95
2023-01-25T03:10:43.758Z,16.92
2023-01-25T03:13:11.205Z,16.90
2023-01-25T03:15:37.671Z,16.48
2023-01-25T03:18:04.598Z,16.88
2023-01-25T03:20:31.039Z,17.25
2023-01-25T03:22:57.391Z,16.58
2023-01-25T03:25:23.749Z,16.42
2023-01-25T03:27:50.083Z,16.30
2023-01-25T03:30:16.488Z,17.77
2023-01-25T03:32:42.865Z,16.83
2023-01-25T03:35:09.689Z,16.38
2023-01-25T03:37:36.183Z,16.05
2023-01-25T03:40:03.120Z,16.60
2023-01-25T03:42:29.505Z,16.60
2023-01-25T03:44:55.844Z,17.15
2023-01-25T03:47:22.587Z,17.48
2023-01-25T03:49:48.970Z,17.23
2023-01-25T03:52:15.842Z,15.98
2023-01-25T03:54:42.238Z,17.27
2023-01-25T03:57:08.650Z,17.38
2023-01-25T03:59:35.035Z,15.63
2023-01-25T04:02:02.879Z,16.67
2023-01-25T04:04:29.333Z,16.42
2023-01-25T04:06:55.719Z,15.45
2023-01-25T04:09:22.146Z,15.40
2023-01-25T04:11:51.882Z,15.63
2023-01-25T04:14:25.518Z,15.02
2023-01-25T04:16:58.272Z,15.52
2023-01-25T04:19:24.660Z,17.02
2023-01-25T04:21:51.031Z,16.45
2023-01-25T04:24:17.600Z,15.70
2023-01-25T04:26:44.017Z,16.65
2023-01-25T04:29:10.640Z,15.75
2023-01-25T04:31:37.126Z,15.93
2023-01-25T04:34:03.586Z,16.30
2023-01-25T04:36:29.958Z,15.45
2023-01-25T04:38:56.300Z,16.10
2023-01-25T04:41:26.805Z,16.52
2023-01-25T04:43:53.182Z,15.27
2023-01-25T04:46:19.606Z,16.05
2023-01-25T04:48:46.046Z,16.65
2023-01-25T04:51:14.247Z,15.98
2023-01-25T04:53:40.653Z,15.75
2023-01-25T04:56:07.484Z,15.90
2023-01-25T04:58:33.898Z,15.05
2023-01-25T05:01:02.074Z,16.40
2023-01-25T05:03:28.953Z,14.95
2023-01-25T05:05:55.388Z,14.95
2023-01-25T05:08:21.733Z,15.63
2023-01-25T05:10:48.098Z,16.00
2023-01-25T05:13:14.537Z,16.25
2023-01-25T05:15:40.877Z,16.05
2023-01-25T05:18:07.280Z,15.75
2023-01-25T05:20:33.697Z,17.95
2023-01-25T05:23:00.147Z,19.73
2023-01-25T05:25:45.086Z,19.20
2023-01-25T05:28:11.460Z,20.38
2023-01-25T05:30:37.943Z,20.55
2023-01-25T05:33:04.338Z,19.10
2023-01-25T05:35:30.699Z,20.48
2023-01-25T05:38:00.271Z,19.13
2023-01-25T05:40:27.269Z,20.27
2023-01-25T05:42:58.437Z,19.38
2023-01-25T05:45:24.892Z,21.08
2023-01-25T05:47:55.118Z,20.88
2023-01-25T05:50:22.903Z,21.70
2023-01-25T05:52:49.367Z,22.67
2023-01-25T05:55:16.196Z,23.65
2023-01-25T05:57:43.249Z,22.92
2023-01-25T06:00:10.634Z,23.77
2023-01-25T06:02:37.489Z,24.27
2023-01-25T06:05:04.510Z,22.83
2023-01-25T06:07:36.209Z,23.33
2023-01-25T06:10:04.614Z,23.42
2023-01-25T06:12:31.401Z,23.88
2023-01-25T06:14:57.850Z,24.67
2023-01-25T06:17:24.286Z,25.05
2023-01-25T06:19:50.843Z,25.33
2023-01-25T06:22:17.211Z,25.10
2023-01-25T06:24:43.557Z,24.67
2023-01-25T06:27:10.915Z,24.52
2023-01-25T06:29:37.285Z,23.23
2023-01-25T06:32:03.941Z,24.10
2023-01-25T06:34:30.341Z,24.15
2023-01-25T06:36:56.656Z,21.80
2023-01-25T06:39:23.027Z,24.05
2023-01-25T06:41:49.393Z,23.95
2023-01-25T06:44:15.749Z,24.25
2023-01-25T06:46:42.113Z,23.85
2023-01-25T06:49:08.456Z,23.20
2023-01-25T06:51:34.851Z,23.27
2023-01-25T06:54:04.150Z,23.88
2023-01-25T06:56:30.627Z,23.95
2023-01-25T06:58:56.953Z,22.35
2023-01-25T07:01:27.481Z,22.67
2023-01-25T07:03:56.478Z,23.33
2023-01-25T07:06:23.758Z,23.58
2023-01-25T07:08:50.974Z,24.42
2023-01-25T07:11:19.164Z,25.13
2023-01-25T07:13:47.025Z,23.75
2023-01-25T07:16:16.310Z,24.98
2023-01-25T07:18:42.963Z,25.40
2023-01-25T07:21:14.452Z,26.08
2023-01-25T07:23:41.590Z,25.05
2023-01-25T07:26:19.872Z,26.08
2023-01-25T07:28:47.886Z,25.30
2023-01-25T07:31:15.348Z,24.77
2023-01-25T07:33:42.192Z,25.27
2023-01-25T07:36:10.572Z,25.50
2023-01-25T07:38:37.689Z,25.13
2023-01-25T07:41:04.506Z,23.77
2023-01-25T07:43:31.333Z,25.20
2023-01-25T07:46:03.145Z,25.42
2023-01-25T07:48:29.914Z,25.33
2023-01-25T07:51:22.891Z,25.10
2023-01-25T07:53:50.977Z,25.52
2023-01-25T07:56:18.617Z,25.75
2023-01-25T07:58:45.682Z,26.48
2023-01-25T08:01:16.893Z,26.08
2023-01-25T08:03:44.253Z,24.83
2023-01-25T08:06:11.509Z,26.13
2023-01-25T08:08:45.143Z,25.60
2023-01-25T08:11:16.550Z,26.25
2023-01-25T08:13:46.458Z,25.30
2023-01-25T08:16:14.085Z,25.45
2023-01-25T08:18:43.464Z,26.15
2023-01-25T08:21:10.211Z,26.80
2023-01-25T08:23:36.642Z,26.27
2023-01-25T08:26:04.549Z,25.48
2023-01-25T08:28:31.336Z,25.92
2023-01-25T08:31:13.637Z,26.08
2023-01-25T08:33:40.638Z,27.05
2023-01-25T08:36:09.847Z,26.05
2023-01-25T08:38:36.872Z,24.75
2023-01-25T08:41:22.046Z,25.92
2023-01-25T08:43:48.544Z,24.23
2023-01-25T08:46:16.671Z,25.45
2023-01-25T08:48:43.141Z,25.25
2023-01-25T08:51:12.500Z,26.67
2023-01-25T08:53:39.203Z,23.65
2023-01-25T08:56:07.689Z,25.75
2023-01-25T08:58:34.535Z,26.30
2023-01-25T09:01:03.414Z,24.75
2023-01-25T09:03:30.225Z,24.58
2023-01-25T09:05:56.587Z,25.05
2023-01-25T09:08:24.075Z,25.75
2023-01-25T09:10:50.581Z,25.73
2023-01-25T09:13:17.291Z,27.35
2023-01-25T09:15:44.380Z,26.75
2023-01-25T09:18:10.755Z,24.95
2023-01-25T09:20:39.943Z,27.35
2023-01-25T09:23:06.364Z,26.35
2023-01-25T09:25:32.783Z,27.42
2023-01-25T09:27:59.178Z,25.80
2023-01-25T09:30:37.280Z,28.30
2023-01-25T09:33:16.316Z,27.70
2023-01-25T09:35:48.072Z,26.60
2023-01-25T09:38:14.530Z,27.20
2023-01-25T09:40:50.080Z,28.77
2023-01-25T09:43:35.703Z,30.00
2023-01-25T09:48:45.107Z,28.45
2023-01-25T09:51:33.242Z,28.52
2023-01-25T09:54:01.100Z,27.13
2023-01-25T09:56:33.879Z,28.25
2023-01-25T09:59:07.655Z,27.70
2023-01-25T10:01:50.226Z,27.27
2023-01-25T10:04:30.260Z,29.17
2023-01-25T10:07:04.450Z,28.52
2023-01-25T10:09:47.831Z,28.33
2023-01-25T10:12:16.335Z,28.83
2023-01-25T10:14:42.802Z,30.20
2023-01-25T10:17:18.119Z,29.52
2023-01-25T10:20:08.012Z,29.33
2023-01-25T10:22:41.072Z,27.52
2023-01-25T10:25:28.818Z,27.48
2023-01-25T10:28:38.518Z,29.15
2023-01-25T10:31:12.086Z,27.52
2023-01-25T10:33:43.190Z,27.65
2023-01-25T10:36:16.634Z,29.50
2023-01-25T10:38:46.742Z,29.75
2023-01-25T10:41:32.639Z,29.95
2023-01-25T10:44:18.995Z,29.83
2023-01-25T10:46:57.597Z,28.38
2023-01-25T10:49:29.970Z,30.65
2023-01-25T10:51:56.684Z,30.65
2023-01-25T10:54:23.804Z,31.08
2023-01-25T10:56:50.454Z,30.40
2023-01-25T10:59:25.645Z,31.58
2023-01-25T11:04:29.998Z,27.67
2023-01-25T11:06:56.924Z,29.73
2023-01-25T11:09:29.398Z,29.45
2023-01-25T11:12:07.298Z,29.13
2023-01-25T11:14:34.235Z,28.70
2023-01-25T11:17:03.305Z,27.92
2023-01-25T11:19:38.390Z,27.73
2023-01-25T11:22:20.771Z,27.73
2023-01-25T11:24:47.634Z,26.60
2023-01-25T11:27:25.450Z,27.55
2023-01-25T11:30:09.658Z,29.30
2023-01-25T11:32:39.226Z,28.70
2023-01-25T11:35:13.789Z,28.98
2023-01-25T11:37:58.325Z,28.30
2023-01-25T11:40:30.913Z,28.25
2023-01-25T11:43:21.709Z,28.15
2023-01-25T11:45:56.270Z,30.23
2023-01-25T11:49:00.071Z,29.25
2023-01-25T11:51:29.729Z,26.98
2023-01-25T11:54:15.063Z,27.00
2023-01-25T11:57:07.737Z,27.70
2023-01-25T11:59:56.036Z,27.80
2023-01-25T12:02:52.968Z,27.38
2023-01-25T12:05:29.489Z,26.83
2023-01-25T12:08:07.860Z,27.75
2023-01-25T12:10:49.405Z,28.65
2023-01-25T12:13:22.790Z,27.73
2023-01-25T12:16:02.901Z,29.27
2023-01-25T12:19:07.655Z,27.92
2023-01-25T12:21:46.170Z,27.67
2023-01-25T12:24:37.586Z,29.30
2023-01-25T12:27:40.984Z,27.00
2023-01-25T12:30:23.886Z,27.05
2023-01-25T12:33:14.363Z,25.98
2023-01-25T12:36:20.308Z,28.27
2023-01-25T12:38:56.293Z,28.20
2023-01-25T12:41:40.049Z,26.40
2023-01-25T12:44:08.994Z,27.67
2023-01-25T12:46:45.516Z,27.10
2023-01-25T12:49:29.612Z,26.65
2023-01-25T12:52:00.622Z,26.52
2023-01-25T12:54:36.282Z,28.45
2023-01-25T12:57:09.880Z,28.10
2023-01-25T13:00:00.346Z,27.55
2023-01-25T13:02:54.579Z,26.27
2023-01-25T13:05:53.360Z,27.40
2023-01-25T13:08:35.758Z,27.27
2023-01-25T13:11:07.663Z,29.95
2023-01-25T13:13:34.677Z,27.13
2023-01-25T13:16:23.652Z,26.80
2023-01-25T13:18:50.342Z,27.42
2023-01-25T13:21:56.491Z,26.33
2023-01-25T13:24:25.829Z,26.13
2023-01-25T13:26:55.251Z,27.55
2023-01-25T13:29:38.446Z,27.88
2023-01-25T13:32:35.178Z,26.33
2023-01-25T13:35:02.397Z,24.33
2023-01-25T13:37:34.764Z,26.00
2023-01-25T13:40:07.774Z,26.85
2023-01-25T13:42:37.216Z,27.88
2023-01-25T13:45:18.840Z,25.08
2023-01-25T13:48:04.680Z,24.60
2023-01-25T13:50:34.606Z,26.95
2023-01-25T13:53:03.999Z,26.77
2023-01-25T13:55:39.945Z,24.02
2023-01-25T13:58:30.618Z,24.73
2023-01-25T14:01:02.056Z,23.70
2023-01-25T14:03:36.551Z,25.23
2023-01-25T14:06:04.318Z,25.27
2023-01-25T14:08:31.861Z,23.85
2023-01-25T14:10:58.744Z,24.45
2023-01-25T14:13:25.405Z,23.63
2023-01-25T14:15:57.987Z,24.35
2023-01-25T14:18:32.649Z,23.73
2023-01-25T14:21:10.496Z,25.55
2023-01-25T14:23:37.303Z,23.83
2023-01-25T14:26:04.239Z,24.65
2023-01-25T14:28:31.050Z,25.52
2023-01-25T14:31:01.249Z,23.77
2023-01-25T14:33:30.329Z,24.92
2023-01-25T14:36:24.472Z,24.88
2023-01-25T14:38:52.019Z,26.33
2023-01-25T14:41:25.812Z,25.30
2023-01-25T14:43:54.986Z,23.23
2023-01-25T14:46:35.404Z,23.98
2023-01-25T14:49:26.253Z,24.35
2023-01-25T14:52:13.006Z,24.73
2023-01-25T14:55:09.044Z,23.63
2023-01-25T15:00:31.684Z,24.35
2023-01-25T15:03:00.620Z,24.92
2023-01-25T15:05:29.769Z,23.92
2023-01-25T15:07:58.952Z,24.08
2023-01-25T15:10:30.914Z,25.73
2023-01-25T15:13:12.424Z,25.83
2023-01-25T15:15:59.941Z,23.73
2023-01-25T15:18:42.781Z,25.02
2023-01-25T15:21:15.162Z,23.95
2023-01-25T15:23:43.243Z,24.58
2023-01-25T15:26:24.776Z,23.33
2023-01-25T15:28:53.355Z,24.70
2023-01-25T15:31:32.743Z,24.55
2023-01-25T15:34:01.360Z,23.80
2023-01-25T15:36:29.267Z,24.65
2023-01-25T15:38:55.754Z,23.80
2023-01-25T15:41:22.509Z,22.75
2023-01-25T15:43:49.542Z,23.45
2023-01-25T15:46:24.934Z,24.48
2023-01-25T15:48:51.495Z,23.80
2023-01-25T15:51:18.570Z,25.05
2023-01-25T15:53:44.944Z,27.67
2023-01-25T15:56:18.684Z,26.58
2023-01-25T15:58:49.685Z,24.38
2023-01-25T16:01:16.484Z,23.65
2023-01-25T16:03:42.870Z,24.08
2023-01-25T16:06:23.861Z,25.05
2023-01-25T16:08:50.314Z,23.25
2023-01-25T16:11:16.671Z,22.48
2023-01-25T16:13:43.017Z,23.00
2023-01-25T16:16:18.474Z,22.95
2023-01-25T16:18:45.168Z,22.95
2023-01-25T16:21:12.682Z,23.88
2023-01-25T16:23:39.855Z,22.50
2023-01-25T16:26:19.086Z,21.52
2023-01-25T16:28:45.458Z,22.25
2023-01-25T16:31:29.905Z,21.80
2023-01-25T16:33:58.342Z,21.17
2023-01-25T16:36:25.092Z,22.05
2023-01-25T16:38:51.522Z,21.20
2023-01-25T16:41:18.575Z,22.95
2023-01-25T16:43:47.146Z,22.88
2023-01-25T16:46:16.255Z,23.08
2023-01-25T16:48:43.290Z,24.30
2023-01-25T16:51:17.948Z,22.58
2023-01-25T16:53:45.553Z,23.35
2023-01-25T16:56:22.796Z,23.85
2023-01-25T16:58:50.403Z,23.63
2023-01-25T17:01:18.965Z,24.52
2023-01-25T17:03:45.866Z,25.13
2023-01-25T17:06:30.217Z,25.33
2023-01-25T17:09:00.340Z,24.83
2023-01-25T17:11:27.943Z,25.33
2023-01-25T17:13:58.158Z,24.95
2023-01-25T17:16:26.942Z,24.73
2023-01-25T17:19:43.078Z,26.23
2023-01-25T17:22:07.695Z,24.77
2023-01-25T17:24:35.972Z,25.05
2023-01-25T17:27:02.527Z,22.65
2023-01-25T17:29:31.901Z,27.52
2023-01-25T17:31:58.866Z,23.63
2023-01-25T17:34:25.313Z,22.52
2023-01-25T17:36:52.487Z,22.42
2023-01-25T17:39:20.339Z,20.75
2023-01-25T17:41:49.361Z,22.02
2023-01-25T17:44:20.826Z,22.05
2023-01-25T17:46:47.724Z,22.83
2023-01-25T17:49:16.773Z,22.48
2023-01-25T17:51:43.942Z,21.58
2023-01-25T17:54:11.804Z,20.52
2023-01-25T17:56:39.640Z,21.17
2023-01-25T17:59:08.894Z,20.00
2023-01-25T18:01:35.934Z,19.40
2023-01-25T18:04:02.429Z,20.17
2023-01-25T18:06:30.935Z,20.20
2023-01-25T18:09:01.077Z,20.17
2023-01-25T18:11:33.699Z,20.85
2023-01-25T18:14:02.429Z,20.98
2023-01-25T18:16:30.963Z,20.52
2023-01-25T18:18:59.990Z,19.35
2023-01-25T18:21:29.834Z,20.25
2023-01-25T18:24:01.568Z,19.85
2023-01-25T18:26:30.546Z,20.70
2023-01-25T18:29:25.854Z,20.98
2023-01-25T18:31:53.136Z,20.73
2023-01-25T18:34:19.557Z,21.65
2023-01-25T18:36:45.968Z,22.00
2023-01-25T18:39:12.326Z,20.85
2023-01-25T18:41:38.655Z,24.38
2023-01-25T18:44:05.545Z,26.40
2023-01-25T18:46:32.448Z,25.30
2023-01-25T18:48:58.878Z,24.55
2023-01-25T18:51:26.118Z,26.45
2023-01-25T18:53:52.544Z,26.45
2023-01-25T18:56:20.809Z,26.45
2023-01-25T18:58:47.710Z,25.65
2023-01-25T19:01:22.329Z,27.40
2023-01-25T19:03:50.099Z,25.80
2023-01-25T19:06:18.573Z,25.65
2023-01-25T19:08:49.728Z,26.20
2023-01-25T19:11:19.880Z,29.08
2023-01-25T19:13:46.362Z,26.17
2023-01-25T19:16:15.016Z,26.75
2023-01-25T19:18:46.809Z,28.40
2023-01-25T19:21:19.115Z,27.50
2023-01-25T19:23:45.977Z,28.30
2023-01-25T19:26:15.591Z,28.80
2023-01-25T19:28:42.658Z,27.23
2023-01-25T19:31:12.149Z,26.48
2023-01-25T19:33:39.131Z,27.63
2023-01-25T19:36:08.058Z,28.02
2023-01-25T19:38:38.767Z,27.40
2023-01-25T19:41:07.463Z,26.25
2023-01-25T19:43:34.565Z,27.55
2023-01-25T19:46:08.552Z,28.83
2023-01-25T19:48:35.785Z,30.60
2023-01-25T19:51:20.319Z,29.10
2023-01-25T19:53:52.519Z,32.03
2023-01-25T19:56:19.356Z,29.92
2023-01-25T19:58:47.545Z,30.30
2023-01-25T20:01:16.288Z,30.98
2023-01-25T20:03:43.327Z,31.23
2023-01-25T20:06:11.696Z,31.02
2023-01-25T20:08:40.739Z,32.17
2023-01-25T20:11:19.568Z,30.33
2023-01-25T20:13:46.782Z,28.25
2023-01-25T20:16:14.159Z,30.13
2023-01-25T20:18:40.659Z,29.25
2023-01-25T20:21:10.138Z,30.92
2023-01-25T20:23:39.894Z,28.75
2023-01-25T20:26:16.095Z,27.77
2023-01-25T20:28:44.345Z,26.73
2023-01-25T20:31:30.960Z,26.67
2023-01-25T20:33:58.825Z,27.52
2023-01-25T20:36:28.563Z,27.40
2023-01-25T20:38:55.516Z,26.75
2023-01-25T20:41:22.599Z,26.35
2023-01-25T20:43:57.320Z,26.80
2023-01-25T20:46:24.921Z,26.30
2023-01-25T20:48:53.368Z,25.27
2023-01-25T20:51:21.511Z,26.50
2023-01-25T20:53:49.450Z,25.75
2023-01-25T20:56:17.089Z,26.17
2023-01-25T20:58:50.068Z,25.48
2023-01-25T21:01:23.189Z,26.63
2023-01-25T21:03:50.212Z,27.90
2023-01-25T21:06:17.576Z,27.95
2023-01-25T21:08:44.194Z,26.38
2023-01-25T21:11:11.554Z,27.42
2023-01-25T21:13:37.966Z,26.38
2023-01-25T21:16:04.676Z,27.45
2023-01-25T21:18:36.118Z,25.90
2023-01-25T21:21:05.515Z,24.92
2023-01-25T21:23:34.099Z,24.80
2023-01-25T21:26:01.975Z,23.80
2023-01-25T21:28:29.285Z,23.38
2023-01-25T21:30:58.223Z,24.52
2023-01-25T21:33:25.046Z,24.35
2023-01-25T21:35:54.467Z,24.13
2023-01-25T21:38:21.300Z,24.17
2023-01-25T21:40:47.655Z,23.75
2023-01-25T21:43:14.063Z,23.85
2023-01-25T21:45:59.227Z,23.65
2023-01-25T21:48:44.055Z,25.30
2023-01-25T21:51:31.061Z,23.77
2023-01-25T21:53:58.648Z,24.63
2023-01-25T21:56:25.050Z,25.33
2023-01-25T21:58:51.419Z,24.20
2023-01-25T22:01:20.056Z,25.65
2023-01-25T22:03:50.684Z,27.45
2023-01-25T22:06:18.376Z,26.27
2023-01-25T22:08:45.646Z,25.75
2023-01-25T22:11:12.188Z,28.40
2023-01-25T22:13:39.180Z,29.55
2023-01-25T22:16:07.524Z,29.83
2023-01-25T22:18:36.916Z,30.27
2023-01-25T22:21:07.010Z,31.58
2023-01-25T22:23:35.471Z,31.02
2023-01-25T22:26:11.178Z,31.58
2023-01-25T22:28:53.890Z,31.15
2023-01-25T22:31:27.949Z,31.13
2023-01-25T22:33:55.645Z,32.17
2023-01-25T22:36:23.553Z,31.92
2023-01-25T22:38:50.892Z,32.55
2023-01-25T22:41:19.858Z,29.15
2023-01-25T22:43:46.477Z,31.70
2023-01-25T22:46:18.444Z,32.22
2023-01-25T22:48:46.195Z,32.15
2023-01-25T22:51:15.722Z,32.63
2023-01-25T22:53:42.638Z,33.80
2023-01-25T22:56:14.234Z,31.35
2023-01-25T22:58:42.678Z,30.33
2023-01-25T23:01:18.815Z,30.50
2023-01-25T23:03:45.783Z,31.08
2023-01-25T23:06:15.246Z,34.45
2023-01-25T23:08:42.271Z,35.40
2023-01-25T23:11:14.501Z,34.25
2023-01-25T23:13:41.764Z,36.22
2023-01-25T23:16:10.020Z,36.17
2023-01-25T23:18:51.716Z,35.70
2023-01-25T23:21:20.275Z,36.42
2023-01-25T23:23:46.967Z,35.03
2023-01-25T23:26:15.259Z,35.60
2023-01-25T23:28:42.360Z,36.13
2023-01-25T23:31:17.073Z,36.17
2023-01-25T23:33:48.820Z,34.65
2023-01-25T23:36:23.601Z,36.05
2023-01-25T23:38:50.766Z,36.90
2023-01-25T23:41:19.147Z,37.53
2023-01-25T23:43:45.603Z,35.58
2023-01-25T23:46:14.239Z,36.38
2023-01-25T23:48:44.926Z,36.17
2023-01-25T23:51:12.492Z,36.40
2023-01-25T23:53:39.786Z,36.47
2023-01-25T23:56:13.209Z,36.38
2023-01-25T23:58:40.136Z,34.33
